sensor_id;sensor_type;location;lat;lon;timestamp;P1;durP1;ratioP1;P2;durP2;ratioP2
19609;SDS011;9952;47.122;-1.638;2023-03-01T00:01:37;19.43;;;12.33;;
19609;SDS011;9952;47.122;-1.638;2023-03-01T00:06:18;18.83;;;11.53;;
19609;SDS011;9952;47.122;-1.638;2023-03-01T00:11:01;20.87;;;12.80;;
19609;SDS011;9952;47.122;-1.638;2023-03-01T00:15:58;19.67;;;12.33;;
19609;SDS011;9952;47.122;-1.638;2023-03-01T00:20:39;19.50;;;12.80;;
19609;SDS011;9952;47.122;-1.638;2023-03-01T00:25:19;18.53;;;12.30;;
19609;SDS011;9952;47.122;-1.638;2023-03-01T00:30:00;16.80;;;12.17;;
19609;SDS011;9952;47.122;-1.638;2023-03-01T00:34:41;18.13;;;11.90;;
19609;SDS011;9952;47.122;-1.638;2023-03-01T00:39:22;17.27;;;11.97;;
19609;SDS011;9952;47.122;-1.638;2023-03-01T00:44:03;17.80;;;11.63;;
19609;SDS011;9952;47.122;-1.638;2023-03-01T00:48:44;19.77;;;11.57;;
19609;SDS011;9952;47.122;-1.638;2023-03-01T00:53:25;18.43;;;11.83;;
19609;SDS011;9952;47.122;-1.638;2023-03-01T00:58:06;19.43;;;13.00;;
19609;SDS011;9952;47.122;-1.638;2023-03-01T01:02:47;19.43;;;11.67;;
19609;SDS011;9952;47.122;-1.638;2023-03-01T01:07:30;17.70;;;11.40;;
19609;SDS011;9952;47.122;-1.638;2023-03-01T01:12:10;17.10;;;11.70;;
19609;SDS011;9952;47.122;-1.638;2023-03-01T01:16:52;17.80;;;11.37;;
19609;SDS011;9952;47.122;-1.638;2023-03-01T01:21:33;16.73;;;11.00;;
19609;SDS011;9952;47.122;-1.638;2023-03-01T01:26:16;20.30;;;11.40;;
19609;SDS011;9952;47.122;-1.638;2023-03-01T01:30:59;18.70;;;11.20;;
19609;SDS011;9952;47.122;-1.638;2023-03-01T01:35:40;15.97;;;10.80;;
19609;SDS011;9952;47.122;-1.638;2023-03-01T01:40:20;16.27;;;10.00;;
19609;SDS011;9952;47.122;-1.638;2023-03-01T01:50:10;19.43;;;10.80;;
19609;SDS011;9952;47.122;-1.638;2023-03-01T01:55:07;17.13;;;10.70;;
19609;SDS011;9952;47.122;-1.638;2023-03-01T01:59:52;14.20;;;10.07;;
19609;SDS011;9952;47.122;-1.638;2023-03-01T02:04:37;13.73;;;9.83;;
19609;SDS011;9952;47.122;-1.638;2023-03-01T02:09:18;16.70;;;10.30;;
19609;SDS011;9952;47.122;-1.638;2023-03-01T02:14:01;17.00;;;10.90;;
19609;SDS011;9952;47.122;-1.638;2023-03-01T02:18:42;18.00;;;10.40;;
19609;SDS011;9952;47.122;-1.638;2023-03-01T02:23:24;16.83;;;9.77;;
19609;SDS011;9952;47.122;-1.638;2023-03-01T02:32:58;16.20;;;10.20;;
19609;SDS011;9952;47.122;-1.638;2023-03-01T02:37:44;15.30;;;9.20;;
19609;SDS011;9952;47.122;-1.638;2023-03-01T02:42:28;17.53;;;10.20;;
19609;SDS011;9952;47.122;-1.638;2023-03-01T02:47:13;15.00;;;9.93;;
19609;SDS011;9952;47.122;-1.638;2023-03-01T02:52:01;16.03;;;9.07;;
19609;SDS011;9952;47.122;-1.638;2023-03-01T02:56:58;12.97;;;8.97;;
19609;SDS011;9952;47.122;-1.638;2023-03-01T03:01:39;15.83;;;9.43;;
19609;SDS011;9952;47.122;-1.638;2023-03-01T03:06:20;16.27;;;9.30;;
19609;SDS011;9952;47.122;-1.638;2023-03-01T03:11:01;16.47;;;10.43;;
19609;SDS011;9952;47.122;-1.638;2023-03-01T03:15:42;15.63;;;10.03;;
19609;SDS011;9952;47.122;-1.638;2023-03-01T03:20:24;13.93;;;9.03;;
19609;SDS011;9952;47.122;-1.638;2023-03-01T03:25:07;14.33;;;9.40;;
19609;SDS011;9952;47.122;-1.638;2023-03-01T03:29:51;15.63;;;9.77;;
19609;SDS011;9952;47.122;-1.638;2023-03-01T03:34:32;15.73;;;9.70;;
19609;SDS011;9952;47.122;-1.638;2023-03-01T03:39:13;15.50;;;9.70;;
19609;SDS011;9952;47.122;-1.638;2023-03-01T03:43:55;13.57;;;9.70;;
19609;SDS011;9952;47.122;-1.638;2023-03-01T03:48:39;14.80;;;9.47;;
19609;SDS011;9952;47.122;-1.638;2023-03-01T03:53:22;18.37;;;10.50;;
19609;SDS011;9952;47.122;-1.638;2023-03-01T03:58:06;15.27;;;8.80;;
19609;SDS011;9952;47.122;-1.638;2023-03-01T04:02:49;17.93;;;10.73;;
19609;SDS011;9952;47.122;-1.638;2023-03-01T04:07:36;14.60;;;10.33;;
19609;SDS011;9952;47.122;-1.638;2023-03-01T04:12:18;23.43;;;11.03;;
19609;SDS011;9952;47.122;-1.638;2023-03-01T04:17:03;19.13;;;10.30;;
19609;SDS011;9952;47.122;-1.638;2023-03-01T04:21:45;16.33;;;10.20;;
19609;SDS011;9952;47.122;-1.638;2023-03-01T04:26:25;17.07;;;10.43;;
19609;SDS011;9952;47.122;-1.638;2023-03-01T04:31:08;18.07;;;10.93;;
19609;SDS011;9952;47.122;-1.638;2023-03-01T04:35:53;16.90;;;10.77;;
19609;SDS011;9952;47.122;-1.638;2023-03-01T04:40:34;15.50;;;9.43;;
19609;SDS011;9952;47.122;-1.638;2023-03-01T04:45:16;18.27;;;11.13;;
19609;SDS011;9952;47.122;-1.638;2023-03-01T04:49:57;15.37;;;10.37;;
19609;SDS011;9952;47.122;-1.638;2023-03-01T04:54:38;17.07;;;11.27;;
19609;SDS011;9952;47.122;-1.638;2023-03-01T04:59:19;19.07;;;10.73;;
19609;SDS011;9952;47.122;-1.638;2023-03-01T05:04:02;16.60;;;10.30;;
19609;SDS011;9952;47.122;-1.638;2023-03-01T05:08:45;20.30;;;10.60;;
19609;SDS011;9952;47.122;-1.638;2023-03-01T05:13:26;13.07;;;9.73;;
19609;SDS011;9952;47.122;-1.638;2023-03-01T05:18:08;14.53;;;9.73;;
19609;SDS011;9952;47.122;-1.638;2023-03-01T05:22:52;17.13;;;10.57;;
19609;SDS011;9952;47.122;-1.638;2023-03-01T05:27:35;14.37;;;9.73;;
19609;SDS011;9952;47.122;-1.638;2023-03-01T05:32:16;13.30;;;9.10;;
19609;SDS011;9952;47.122;-1.638;2023-03-01T05:36:57;14.87;;;9.23;;
19609;SDS011;9952;47.122;-1.638;2023-03-01T05:41:39;14.13;;;8.83;;
19609;SDS011;9952;47.122;-1.638;2023-03-01T05:46:20;14.80;;;9.47;;
19609;SDS011;9952;47.122;-1.638;2023-03-01T05:51:04;14.93;;;8.07;;
19609;SDS011;9952;47.122;-1.638;2023-03-01T05:55:46;14.30;;;9.33;;
19609;SDS011;9952;47.122;-1.638;2023-03-01T06:00:27;15.67;;;8.63;;
19609;SDS011;9952;47.122;-1.638;2023-03-01T06:05:10;12.90;;;8.23;;
19609;SDS011;9952;47.122;-1.638;2023-03-01T06:09:52;12.23;;;8.27;;
19609;SDS011;9952;47.122;-1.638;2023-03-01T06:14:33;11.87;;;8.20;;
19609;SDS011;9952;47.122;-1.638;2023-03-01T06:19:14;12.53;;;8.60;;
19609;SDS011;9952;47.122;-1.638;2023-03-01T06:23:54;15.03;;;7.87;;
19609;SDS011;9952;47.122;-1.638;2023-03-01T06:28:35;11.47;;;7.90;;
19609;SDS011;9952;47.122;-1.638;2023-03-01T06:33:16;16.50;;;8.57;;
19609;SDS011;9952;47.122;-1.638;2023-03-01T06:38:00;10.73;;;8.00;;
19609;SDS011;9952;47.122;-1.638;2023-03-01T06:42:43;15.47;;;8.17;;
19609;SDS011;9952;47.122;-1.638;2023-03-01T06:47:29;14.83;;;8.13;;
19609;SDS011;9952;47.122;-1.638;2023-03-01T06:52:10;13.03;;;8.17;;
19609;SDS011;9952;47.122;-1.638;2023-03-01T06:56:50;11.63;;;8.40;;
19609;SDS011;9952;47.122;-1.638;2023-03-01T07:01:31;13.70;;;8.23;;
19609;SDS011;9952;47.122;-1.638;2023-03-01T07:06:12;12.87;;;8.33;;
19609;SDS011;9952;47.122;-1.638;2023-03-01T07:10:56;12.90;;;8.07;;
19609;SDS011;9952;47.122;-1.638;2023-03-01T07:15:39;14.07;;;7.93;;
19609;SDS011;9952;47.122;-1.638;2023-03-01T07:20:20;11.00;;;7.97;;
19609;SDS011;9952;47.122;-1.638;2023-03-01T07:25:05;13.93;;;8.33;;
19609;SDS011;9952;47.122;-1.638;2023-03-01T07:29:46;13.33;;;8.47;;
19609;SDS011;9952;47.122;-1.638;2023-03-01T07:34:27;10.93;;;8.20;;
19609;SDS011;9952;47.122;-1.638;2023-03-01T07:39:07;13.33;;;8.33;;
19609;SDS011;9952;47.122;-1.638;2023-03-01T07:43:49;13.67;;;8.30;;
19609;SDS011;9952;47.122;-1.638;2023-03-01T07:48:30;13.07;;;8.17;;
19609;SDS011;9952;47.122;-1.638;2023-03-01T07:53:11;15.27;;;8.37;;
19609;SDS011;9952;47.122;-1.638;2023-03-01T07:57:52;12.97;;;8.73;;
19609;SDS011;9952;47.122;-1.638;2023-03-01T08:02:33;11.03;;;7.90;;
19609;SDS011;9952;47.122;-1.638;2023-03-01T08:07:13;10.77;;;7.57;;
19609;SDS011;9952;47.122;-1.638;2023-03-01T08:11:55;11.70;;;8.67;;
19609;SDS011;9952;47.122;-1.638;2023-03-01T08:16:39;11.50;;;8.07;;
19609;SDS011;9952;47.122;-1.638;2023-03-01T08:21:20;15.30;;;8.27;;
19609;SDS011;9952;47.122;-1.638;2023-03-01T08:26:08;11.23;;;8.07;;
19609;SDS011;9952;47.122;-1.638;2023-03-01T08:30:50;15.17;;;8.27;;
19609;SDS011;9952;47.122;-1.638;2023-03-01T08:35:31;12.33;;;7.97;;
19609;SDS011;9952;47.122;-1.638;2023-03-01T08:40:12;12.37;;;8.27;;
19609;SDS011;9952;47.122;-1.638;2023-03-01T08:44:53;13.60;;;7.47;;
19609;SDS011;9952;47.122;-1.638;2023-03-01T08:49:34;15.80;;;9.23;;
19609;SDS011;9952;47.122;-1.638;2023-03-01T08:54:16;12.60;;;8.70;;
19609;SDS011;9952;47.122;-1.638;2023-03-01T08:58:59;14.23;;;8.80;;
19609;SDS011;9952;47.122;-1.638;2023-03-01T09:03:40;10.80;;;8.13;;
19609;SDS011;9952;47.122;-1.638;2023-03-01T09:08:21;14.67;;;9.37;;
19609;SDS011;9952;47.122;-1.638;2023-03-01T09:13:03;12.97;;;7.93;;
19609;SDS011;9952;47.122;-1.638;2023-03-01T09:17:44;11.67;;;8.07;;
19609;SDS011;9952;47.122;-1.638;2023-03-01T09:22:25;14.70;;;9.00;;
19609;SDS011;9952;47.122;-1.638;2023-03-01T09:27:06;11.20;;;8.20;;
19609;SDS011;9952;47.122;-1.638;2023-03-01T09:31:48;13.83;;;8.87;;
19609;SDS011;9952;47.122;-1.638;2023-03-01T09:36:29;13.40;;;8.67;;
19609;SDS011;9952;47.122;-1.638;2023-03-01T09:41:11;12.70;;;8.77;;
19609;SDS011;9952;47.122;-1.638;2023-03-01T09:46:03;15.53;;;9.03;;
19609;SDS011;9952;47.122;-1.638;2023-03-01T09:50:48;14.63;;;8.63;;
19609;SDS011;9952;47.122;-1.638;2023-03-01T09:55:31;13.73;;;8.83;;
19609;SDS011;9952;47.122;-1.638;2023-03-01T10:05:27;14.40;;;8.67;;
19609;SDS011;9952;47.122;-1.638;2023-03-01T10:10:26;21.17;;;9.57;;
19609;SDS011;9952;47.122;-1.638;2023-03-01T10:15:15;17.40;;;9.73;;
19609;SDS011;9952;47.122;-1.638;2023-03-01T10:20:33;14.97;;;8.63;;
19609;SDS011;9952;47.122;-1.638;2023-03-01T10:25:30;16.13;;;9.30;;
19609;SDS011;9952;47.122;-1.638;2023-03-01T10:30:35;14.93;;;9.50;;
19609;SDS011;9952;47.122;-1.638;2023-03-01T10:35:23;18.00;;;9.60;;
19609;SDS011;9952;47.122;-1.638;2023-03-01T10:40:07;16.97;;;9.30;;
19609;SDS011;9952;47.122;-1.638;2023-03-01T10:44:49;15.60;;;9.50;;
19609;SDS011;9952;47.122;-1.638;2023-03-01T10:49:30;15.83;;;9.50;;
19609;SDS011;9952;47.122;-1.638;2023-03-01T10:54:18;13.53;;;8.97;;
19609;SDS011;9952;47.122;-1.638;2023-03-01T10:59:04;13.50;;;8.63;;
19609;SDS011;9952;47.122;-1.638;2023-03-01T11:03:45;18.00;;;9.87;;
19609;SDS011;9952;47.122;-1.638;2023-03-01T11:08:47;18.27;;;10.63;;
19609;SDS011;9952;47.122;-1.638;2023-03-01T11:13:29;15.23;;;9.33;;
19609;SDS011;9952;47.122;-1.638;2023-03-01T11:18:20;47.93;;;23.93;;
19609;SDS011;9952;47.122;-1.638;2023-03-01T11:23:03;18.67;;;8.93;;
19609;SDS011;9952;47.122;-1.638;2023-03-01T11:27:47;13.40;;;8.53;;
19609;SDS011;9952;47.122;-1.638;2023-03-01T11:32:29;20.40;;;10.20;;
19609;SDS011;9952;47.122;-1.638;2023-03-01T11:42:27;14.33;;;9.40;;
19609;SDS011;9952;47.122;-1.638;2023-03-01T11:48:25;15.83;;;9.10;;
19609;SDS011;9952;47.122;-1.638;2023-03-01T12:13:23;14.50;;;9.07;;
19609;SDS011;9952;47.122;-1.638;2023-03-01T12:18:19;12.73;;;9.23;;
19609;SDS011;9952;47.122;-1.638;2023-03-01T12:23:16;15.23;;;9.40;;
19609;SDS011;9952;47.122;-1.638;2023-03-01T12:28:19;17.87;;;9.40;;
19609;SDS011;9952;47.122;-1.638;2023-03-01T13:03:10;13.17;;;8.43;;
19609;SDS011;9952;47.122;-1.638;2023-03-01T13:12:53;14.67;;;9.57;;
19609;SDS011;9952;47.122;-1.638;2023-03-01T13:17:43;13.70;;;8.67;;
19609;SDS011;9952;47.122;-1.638;2023-03-01T13:22:29;14.57;;;8.47;;
19609;SDS011;9952;47.122;-1.638;2023-03-01T13:31:57;13.33;;;8.13;;
19609;SDS011;9952;47.122;-1.638;2023-03-01T13:36:46;11.47;;;8.30;;
19609;SDS011;9952;47.122;-1.638;2023-03-01T13:46:23;15.23;;;8.33;;
19609;SDS011;9952;47.122;-1.638;2023-03-01T13:51:06;14.63;;;8.97;;
19609;SDS011;9952;47.122;-1.638;2023-03-01T13:55:55;12.47;;;8.33;;
19609;SDS011;9952;47.122;-1.638;2023-03-01T14:00:40;12.50;;;9.37;;
19609;SDS011;9952;47.122;-1.638;2023-03-01T14:05:21;14.10;;;9.07;;
19609;SDS011;9952;47.122;-1.638;2023-03-01T14:10:03;11.73;;;8.33;;
19609;SDS011;9952;47.122;-1.638;2023-03-01T14:19:45;13.33;;;9.23;;
19609;SDS011;9952;47.122;-1.638;2023-03-01T14:24:28;15.10;;;8.90;;
19609;SDS011;9952;47.122;-1.638;2023-03-01T14:29:25;19.50;;;9.93;;
19609;SDS011;9952;47.122;-1.638;2023-03-01T14:34:21;15.50;;;9.13;;
19609;SDS011;9952;47.122;-1.638;2023-03-01T14:39:15;12.90;;;9.10;;
19609;SDS011;9952;47.122;-1.638;2023-03-01T14:48:40;17.60;;;10.90;;
19609;SDS011;9952;47.122;-1.638;2023-03-01T14:53:22;17.20;;;10.80;;
19609;SDS011;9952;47.122;-1.638;2023-03-01T14:58:08;16.43;;;10.43;;
19609;SDS011;9952;47.122;-1.638;2023-03-01T15:02:54;16.40;;;10.40;;
19609;SDS011;9952;47.122;-1.638;2023-03-01T15:07:38;21.90;;;13.53;;
19609;SDS011;9952;47.122;-1.638;2023-03-01T15:17:20;17.43;;;11.30;;
19609;SDS011;9952;47.122;-1.638;2023-03-01T15:22:17;18.93;;;12.57;;
19609;SDS011;9952;47.122;-1.638;2023-03-01T15:26:59;17.93;;;11.77;;
19609;SDS011;9952;47.122;-1.638;2023-03-01T15:32:00;19.77;;;11.50;;
19609;SDS011;9952;47.122;-1.638;2023-03-01T15:36:46;19.27;;;12.37;;
19609;SDS011;9952;47.122;-1.638;2023-03-01T15:41:31;20.20;;;14.83;;
19609;SDS011;9952;47.122;-1.638;2023-03-01T15:46:25;18.07;;;12.17;;
19609;SDS011;9952;47.122;-1.638;2023-03-01T15:51:14;16.57;;;11.40;;
19609;SDS011;9952;47.122;-1.638;2023-03-01T15:55:56;16.90;;;11.00;;
19609;SDS011;9952;47.122;-1.638;2023-03-01T16:00:37;14.73;;;10.40;;
19609;SDS011;9952;47.122;-1.638;2023-03-01T16:05:21;16.30;;;11.07;;
19609;SDS011;9952;47.122;-1.638;2023-03-01T16:10:07;17.67;;;10.50;;
19609;SDS011;9952;47.122;-1.638;2023-03-01T16:14:48;18.43;;;10.73;;
19609;SDS011;9952;47.122;-1.638;2023-03-01T16:19:29;21.63;;;11.50;;
19609;SDS011;9952;47.122;-1.638;2023-03-01T16:24:10;17.87;;;11.27;;
19609;SDS011;9952;47.122;-1.638;2023-03-01T16:28:54;18.53;;;12.23;;
19609;SDS011;9952;47.122;-1.638;2023-03-01T16:33:36;20.03;;;12.50;;
19609;SDS011;9952;47.122;-1.638;2023-03-01T16:38:17;19.20;;;12.57;;
19609;SDS011;9952;47.122;-1.638;2023-03-01T16:42:58;19.73;;;13.97;;
19609;SDS011;9952;47.122;-1.638;2023-03-01T16:47:41;23.37;;;16.33;;
19609;SDS011;9952;47.122;-1.638;2023-03-01T16:52:22;18.03;;;12.73;;
19609;SDS011;9952;47.122;-1.638;2023-03-01T16:57:03;20.07;;;12.87;;
19609;SDS011;9952;47.122;-1.638;2023-03-01T17:01:44;19.57;;;12.23;;
19609;SDS011;9952;47.122;-1.638;2023-03-01T17:06:26;17.73;;;11.73;;
19609;SDS011;9952;47.122;-1.638;2023-03-01T17:11:11;16.80;;;11.57;;
19609;SDS011;9952;47.122;-1.638;2023-03-01T17:15:56;18.57;;;11.50;;
19609;SDS011;9952;47.122;-1.638;2023-03-01T17:20:37;21.00;;;12.70;;
19609;SDS011;9952;47.122;-1.638;2023-03-01T17:25:18;19.63;;;11.67;;
19609;SDS011;9952;47.122;-1.638;2023-03-01T17:29:58;15.93;;;10.67;;
19609;SDS011;9952;47.122;-1.638;2023-03-01T17:34:40;17.90;;;10.87;;
19609;SDS011;9952;47.122;-1.638;2023-03-01T17:39:21;18.47;;;11.77;;
19609;SDS011;9952;47.122;-1.638;2023-03-01T17:44:07;21.80;;;13.00;;
19609;SDS011;9952;47.122;-1.638;2023-03-01T17:48:48;18.57;;;11.73;;
19609;SDS011;9952;47.122;-1.638;2023-03-01T17:53:29;17.23;;;11.63;;
19609;SDS011;9952;47.122;-1.638;2023-03-01T17:58:10;14.07;;;10.33;;
19609;SDS011;9952;47.122;-1.638;2023-03-01T18:02:52;15.83;;;10.53;;
19609;SDS011;9952;47.122;-1.638;2023-03-01T18:07:34;17.03;;;11.10;;
19609;SDS011;9952;47.122;-1.638;2023-03-01T18:12:15;27.60;;;19.33;;
19609;SDS011;9952;47.122;-1.638;2023-03-01T18:16:55;20.73;;;16.67;;
19609;SDS011;9952;47.122;-1.638;2023-03-01T18:21:36;18.83;;;12.67;;
19609;SDS011;9952;47.122;-1.638;2023-03-01T18:26:17;20.23;;;13.63;;
19609;SDS011;9952;47.122;-1.638;2023-03-01T18:31:02;20.93;;;14.47;;
19609;SDS011;9952;47.122;-1.638;2023-03-01T18:35:44;16.27;;;11.90;;
19609;SDS011;9952;47.122;-1.638;2023-03-01T18:40:25;18.67;;;15.07;;
19609;SDS011;9952;47.122;-1.638;2023-03-01T18:45:07;24.43;;;16.87;;
19609;SDS011;9952;47.122;-1.638;2023-03-01T18:49:48;28.80;;;13.97;;
19609;SDS011;9952;47.122;-1.638;2023-03-01T18:54:29;21.20;;;15.33;;
19609;SDS011;9952;47.122;-1.638;2023-03-01T18:59:11;25.63;;;15.97;;
19609;SDS011;9952;47.122;-1.638;2023-03-01T19:03:52;27.83;;;18.80;;
19609;SDS011;9952;47.122;-1.638;2023-03-01T19:08:35;15.73;;;11.47;;
19609;SDS011;9952;47.122;-1.638;2023-03-01T19:13:16;20.93;;;12.67;;
19609;SDS011;9952;47.122;-1.638;2023-03-01T19:17:57;22.07;;;12.30;;
19609;SDS011;9952;47.122;-1.638;2023-03-01T19:22:38;24.33;;;14.50;;
19609;SDS011;9952;47.122;-1.638;2023-03-01T19:27:18;17.70;;;12.07;;
19609;SDS011;9952;47.122;-1.638;2023-03-01T19:31:59;18.93;;;12.57;;
19609;SDS011;9952;47.122;-1.638;2023-03-01T19:36:40;18.73;;;12.90;;
19609;SDS011;9952;47.122;-1.638;2023-03-01T19:41:21;18.40;;;12.87;;
19609;SDS011;9952;47.122;-1.638;2023-03-01T19:46:02;21.50;;;14.30;;
19609;SDS011;9952;47.122;-1.638;2023-03-01T19:50:43;21.87;;;12.90;;
19609;SDS011;9952;47.122;-1.638;2023-03-01T19:55:24;23.53;;;15.20;;
19609;SDS011;9952;47.122;-1.638;2023-03-01T20:00:05;25.00;;;15.57;;
19609;SDS011;9952;47.122;-1.638;2023-03-01T20:04:47;24.23;;;15.43;;
19609;SDS011;9952;47.122;-1.638;2023-03-01T20:09:27;24.20;;;15.53;;
19609;SDS011;9952;47.122;-1.638;2023-03-01T20:14:08;30.83;;;16.80;;
19609;SDS011;9952;47.122;-1.638;2023-03-01T20:18:51;24.77;;;15.47;;
19609;SDS011;9952;47.122;-1.638;2023-03-01T20:23:33;27.73;;;15.70;;
19609;SDS011;9952;47.122;-1.638;2023-03-01T20:28:15;22.43;;;14.27;;
19609;SDS011;9952;47.122;-1.638;2023-03-01T20:32:56;27.67;;;15.43;;
19609;SDS011;9952;47.122;-1.638;2023-03-01T20:37:37;28.97;;;15.07;;
19609;SDS011;9952;47.122;-1.638;2023-03-01T20:42:18;31.00;;;16.10;;
19609;SDS011;9952;47.122;-1.638;2023-03-01T20:46:59;27.57;;;15.33;;
19609;SDS011;9952;47.122;-1.638;2023-03-01T20:51:39;24.67;;;14.77;;
19609;SDS011;9952;47.122;-1.638;2023-03-01T20:56:21;24.30;;;14.83;;
19609;SDS011;9952;47.122;-1.638;2023-03-01T21:01:02;24.00;;;14.93;;
19609;SDS011;9952;47.122;-1.638;2023-03-01T21:05:45;20.13;;;12.67;;
19609;SDS011;9952;47.122;-1.638;2023-03-01T21:10:26;18.83;;;12.80;;
19609;SDS011;9952;47.122;-1.638;2023-03-01T21:19:52;20.17;;;13.23;;
19609;SDS011;9952;47.122;-1.638;2023-03-01T21:24:33;23.00;;;12.50;;
19609;SDS011;9952;47.122;-1.638;2023-03-01T21:29:14;21.60;;;13.07;;
19609;SDS011;9952;47.122;-1.638;2023-03-01T21:33:55;20.80;;;12.43;;
19609;SDS011;9952;47.122;-1.638;2023-03-01T21:38:39;19.70;;;12.40;;
19609;SDS011;9952;47.122;-1.638;2023-03-01T21:43:21;23.07;;;12.93;;
19609;SDS011;9952;47.122;-1.638;2023-03-01T21:48:03;18.27;;;11.90;;
19609;SDS011;9952;47.122;-1.638;2023-03-01T21:52:44;23.20;;;11.77;;
19609;SDS011;9952;47.122;-1.638;2023-03-01T21:57:25;18.07;;;10.93;;
19609;SDS011;9952;47.122;-1.638;2023-03-01T22:02:05;20.67;;;11.17;;
19609;SDS011;9952;47.122;-1.638;2023-03-01T22:06:47;17.97;;;10.93;;
19609;SDS011;9952;47.122;-1.638;2023-03-01T22:11:28;20.07;;;11.37;;
19609;SDS011;9952;47.122;-1.638;2023-03-01T22:16:10;17.10;;;10.70;;
19609;SDS011;9952;47.122;-1.638;2023-03-01T22:20:51;21.10;;;10.93;;
19609;SDS011;9952;47.122;-1.638;2023-03-01T22:25:38;18.27;;;10.50;;
19609;SDS011;9952;47.122;-1.638;2023-03-01T22:30:21;20.43;;;10.80;;
19609;SDS011;9952;47.122;-1.638;2023-03-01T22:35:20;17.83;;;10.93;;
19609;SDS011;9952;47.122;-1.638;2023-03-01T22:40:13;15.43;;;10.10;;
19609;SDS011;9952;47.122;-1.638;2023-03-01T22:45:00;17.67;;;10.23;;
19609;SDS011;9952;47.122;-1.638;2023-03-01T22:50:29;17.90;;;10.43;;
19609;SDS011;9952;47.122;-1.638;2023-03-01T22:55:46;18.33;;;10.47;;
19609;SDS011;9952;47.122;-1.638;2023-03-01T23:00:58;19.23;;;9.37;;
19609;SDS011;9952;47.122;-1.638;2023-03-01T23:06:00;20.10;;;10.37;;
19609;SDS011;9952;47.122;-1.638;2023-03-01T23:10:41;14.83;;;9.53;;
19609;SDS011;9952;47.122;-1.638;2023-03-01T23:15:22;17.40;;;10.17;;
19609;SDS011;9952;47.122;-1.638;2023-03-01T23:20:03;21.70;;;10.20;;
19609;SDS011;9952;47.122;-1.638;2023-03-01T23:24:53;20.00;;;10.27;;
19609;SDS011;9952;47.122;-1.638;2023-03-01T23:29:34;17.90;;;10.30;;
19609;SDS011;9952;47.122;-1.638;2023-03-01T23:34:14;19.47;;;10.23;;
19609;SDS011;9952;47.122;-1.638;2023-03-01T23:38:56;18.30;;;10.80;;
19609;SDS011;9952;47.122;-1.638;2023-03-01T23:43:38;16.43;;;9.80;;
19609;SDS011;9952;47.122;-1.638;2023-03-01T23:48:23;16.67;;;10.03;;
19609;SDS011;9952;47.122;-1.638;2023-03-01T23:53:04;19.60;;;10.47;;
19609;SDS011;9952;47.122;-1.638;2023-03-01T23:57:45;18.20;;;10.43;;
